createdAt,value
2018-09-05T00:00:33.105Z,46.10
2018-09-05T00:01:33.045Z,43.60
2018-09-05T00:02:33.005Z,48.40
2018-09-05T00:03:32.961Z,47.70
2018-09-05T00:04:32.922Z,43.50
2018-09-05T00:05:32.879Z,43.10
2018-09-05T00:06:32.840Z,47.50
2018-09-05T00:07:32.794Z,44.50
2018-09-05T00:08:32.780Z,46.50
2018-09-05T00:09:32.711Z,42.80
2018-09-05T00:10:32.671Z,44.70
2018-09-05T00:11:32.647Z,43.80
2018-09-05T00:12:32.586Z,41.00
2018-09-05T00:13:32.561Z,45.20
2018-09-05T00:14:32.502Z,42.80
2018-09-05T00:15:32.460Z,48.20
2018-09-05T00:16:32.448Z,46.50
2018-09-05T00:17:32.376Z,46.00
2018-09-05T00:18:32.349Z,44.20
2018-09-05T00:19:32.325Z,45.60
2018-09-05T00:20:32.276Z,49.00
2018-09-05T00:21:32.216Z,48.70
2018-09-05T00:22:32.171Z,46.30
2018-09-05T00:23:32.125Z,47.60
2018-09-05T00:24:32.088Z,48.70
2018-09-05T00:25:32.042Z,46.00
2018-09-05T00:26:32.005Z,47.70
2018-09-05T00:27:31.965Z,50.00
2018-09-05T00:28:31.922Z,48.90
2018-09-05T00:29:31.876Z,53.50
2018-09-05T00:30:31.848Z,53.00
2018-09-05T00:31:31.798Z,53.20
2018-09-05T00:32:31.764Z,50.90
2018-09-05T00:33:31.710Z,47.90
2018-09-05T00:34:31.670Z,51.70
2018-09-05T00:35:31.644Z,47.80
2018-09-05T00:36:31.580Z,48.30
2018-09-05T00:37:31.541Z,49.90
2018-09-05T00:38:31.496Z,44.70
2018-09-05T00:39:31.468Z,48.10
2018-09-05T00:40:31.449Z,45.30
2018-09-05T00:41:31.370Z,42.70
2018-09-05T00:42:31.328Z,45.80
2018-09-05T00:43:31.357Z,43.10
2018-09-05T00:44:31.264Z,43.70
2018-09-05T00:45:31.221Z,45.10
2018-09-05T00:46:31.160Z,42.60
2018-09-05T00:47:31.117Z,41.80
2018-09-05T00:48:31.076Z,42.80
2018-09-05T00:49:31.044Z,41.70
2018-09-05T00:50:30.992Z,41.80
2018-09-05T00:51:30.950Z,42.10
2018-09-05T00:52:31.201Z,44.90
2018-09-05T00:53:30.939Z,43.10
2018-09-05T00:54:30.825Z,42.60
2018-09-05T00:55:30.782Z,42.20
2018-09-05T00:56:30.740Z,41.60
2018-09-05T00:57:30.697Z,43.20
2018-09-05T00:58:30.655Z,42.60
2018-09-05T00:59:30.612Z,43.70
2018-09-05T01:00:30.570Z,42.60
2018-09-05T01:01:30.528Z,42.00
2018-09-05T01:02:30.486Z,42.20
2018-09-05T01:03:30.445Z,41.80
2018-09-05T01:04:30.401Z,38.90
2018-09-05T01:05:30.361Z,39.30
2018-09-05T01:06:30.319Z,39.20
2018-09-05T01:07:30.278Z,39.40
2018-09-05T01:08:30.238Z,38.80
2018-09-05T01:09:30.194Z,38.70
2018-09-05T01:10:30.149Z,38.30
2018-09-05T01:11:30.106Z,40.00
2018-09-05T01:12:30.067Z,38.40
2018-09-05T01:13:30.024Z,39.30
2018-09-05T01:14:29.983Z,39.00
2018-09-05T01:15:29.939Z,38.00
2018-09-05T01:16:29.898Z,38.50
2018-09-05T01:17:29.857Z,38.30
2018-09-05T01:18:29.815Z,40.00
2018-09-05T01:19:29.770Z,40.90
2018-09-05T01:20:29.730Z,40.10
2018-09-05T01:21:29.690Z,39.50
2018-09-05T01:22:29.644Z,40.80
2018-09-05T01:23:29.601Z,39.90
2018-09-05T01:24:29.568Z,40.90
2018-09-05T01:25:29.525Z,40.10
2018-09-05T01:26:29.474Z,39.50
2018-09-05T01:27:29.433Z,39.40
2018-09-05T01:28:29.392Z,41.40
2018-09-05T01:29:29.350Z,39.70
2018-09-05T01:30:29.307Z,39.20
2018-09-05T01:31:29.267Z,38.30
2018-09-05T01:32:29.229Z,39.60
2018-09-05T01:33:29.183Z,41.00
2018-09-05T01:34:29.139Z,42.40
2018-09-05T01:35:29.105Z,40.30
2018-09-05T01:36:29.055Z,40.20
2018-09-05T01:37:29.015Z,40.60
2018-09-05T01:38:28.973Z,42.10
2018-09-05T01:39:28.932Z,41.00
2018-09-05T01:40:28.897Z,40.40
2018-09-05T01:41:28.843Z,40.20
2018-09-05T01:42:28.801Z,41.40
2018-09-05T01:43:28.770Z,42.00
2018-09-05T01:44:28.716Z,41.30
2018-09-05T01:45:28.677Z,41.80
2018-09-05T01:46:28.632Z,41.50
2018-09-05T01:47:28.592Z,38.20
2018-09-05T01:48:28.549Z,38.30
2018-09-05T01:49:28.507Z,40.60
2018-09-05T01:50:28.464Z,36.70
2018-09-05T01:51:28.421Z,38.40
2018-09-05T01:52:28.385Z,38.50
2018-09-05T01:53:28.339Z,40.90
2018-09-05T01:54:28.294Z,40.70
2018-09-05T01:55:28.255Z,41.70
2018-09-05T01:56:28.210Z,41.60
2018-09-05T01:57:28.188Z,42.80
2018-09-05T01:58:28.127Z,43.40
2018-09-05T01:59:28.087Z,40.70
2018-09-05T02:00:28.046Z,42.20
2018-09-05T02:01:27.999Z,42.30
2018-09-05T02:02:27.961Z,41.50
2018-09-05T02:03:27.926Z,38.80
2018-09-05T02:04:27.876Z,39.10
2018-09-05T02:05:27.836Z,38.60
2018-09-05T02:06:27.798Z,40.40
2018-09-05T02:07:27.748Z,38.90
2018-09-05T02:08:27.762Z,37.70
2018-09-05T02:09:27.663Z,37.60
2018-09-05T02:10:27.625Z,37.60
2018-09-05T02:11:27.579Z,36.90
2018-09-05T02:12:27.536Z,39.30
2018-09-05T02:13:27.495Z,39.70
2018-09-05T02:14:27.454Z,39.90
2018-09-05T02:15:27.415Z,41.20
2018-09-05T02:16:27.367Z,40.80
2018-09-05T02:17:27.325Z,39.30
2018-09-05T02:18:27.282Z,43.70
2018-09-05T02:19:27.241Z,41.50
2018-09-05T02:20:27.199Z,40.30
2018-09-05T02:21:27.156Z,38.70
2018-09-05T02:22:27.116Z,39.80
2018-09-05T02:23:27.072Z,39.70
2018-09-05T02:24:27.029Z,40.20
2018-09-05T02:25:26.986Z,39.90
2018-09-05T02:26:26.944Z,42.40
2018-09-05T02:27:26.902Z,42.30
2018-09-05T02:28:26.861Z,45.30
2018-09-05T02:29:26.817Z,40.60
2018-09-05T02:30:26.775Z,40.80
2018-09-05T02:31:26.733Z,43.30
2018-09-05T02:32:26.692Z,40.60
2018-09-05T02:33:26.649Z,41.80
2018-09-05T02:34:26.618Z,43.10
2018-09-05T02:35:26.569Z,43.40
2018-09-05T02:36:26.522Z,41.40
2018-09-05T02:37:26.485Z,43.50
2018-09-05T02:38:26.438Z,39.80
2018-09-05T02:39:26.398Z,41.90
2018-09-05T02:40:26.366Z,43.40
2018-09-05T02:41:26.314Z,41.90
2018-09-05T02:42:26.270Z,39.90
2018-09-05T02:43:26.227Z,41.30
2018-09-05T02:44:26.185Z,39.10
2018-09-05T02:45:26.142Z,42.30
2018-09-05T02:46:26.102Z,40.70
2018-09-05T02:47:26.058Z,41.70
2018-09-05T02:48:26.022Z,42.10
2018-09-05T02:49:25.976Z,41.30
2018-09-05T02:50:25.941Z,39.70
2018-09-05T02:51:25.889Z,40.00
2018-09-05T02:52:25.850Z,41.10
2018-09-05T02:53:25.805Z,40.90
2018-09-05T02:54:25.762Z,41.50
2018-09-05T02:55:25.721Z,43.10
2018-09-05T02:56:25.680Z,41.40
2018-09-05T02:57:25.637Z,41.30
2018-09-05T02:58:25.593Z,39.60
2018-09-05T02:59:25.553Z,40.20
2018-09-05T03:00:25.511Z,38.60
2018-09-05T03:01:25.466Z,37.90
2018-09-05T03:02:25.427Z,38.70
2018-09-05T03:03:25.382Z,37.10
2018-09-05T03:04:25.341Z,37.70
2018-09-05T03:05:25.306Z,37.90
2018-09-05T03:06:25.257Z,37.70
2018-09-05T03:07:25.220Z,37.90
2018-09-05T03:08:25.174Z,37.90
2018-09-05T03:09:25.171Z,37.10
2018-09-05T03:10:25.094Z,38.30
2018-09-05T03:11:25.050Z,36.90
2018-09-05T03:12:25.008Z,36.50
2018-09-05T03:13:24.960Z,38.80
2018-09-05T03:14:24.920Z,38.10
2018-09-05T03:15:24.881Z,40.70
2018-09-05T03:16:24.836Z,36.60
2018-09-05T03:17:24.796Z,40.20
2018-09-05T03:18:24.752Z,37.50
2018-09-05T03:19:24.709Z,37.10
2018-09-05T03:20:24.666Z,38.00
2018-09-05T03:21:24.623Z,36.90
2018-09-05T03:22:24.584Z,36.80
2018-09-05T03:23:24.609Z,37.00
2018-09-05T03:24:24.512Z,36.50
2018-09-05T03:25:24.455Z,36.10
2018-09-05T03:26:24.415Z,36.00
2018-09-05T03:27:24.374Z,35.30
2018-09-05T03:28:24.328Z,35.70
2018-09-05T03:29:24.303Z,37.70
2018-09-05T03:30:24.245Z,36.50
2018-09-05T03:31:24.201Z,35.60
2018-09-05T03:32:24.252Z,38.00
2018-09-05T03:33:24.117Z,38.00
2018-09-05T03:34:24.077Z,37.80
2018-09-05T03:35:24.035Z,36.50
2018-09-05T03:36:23.994Z,37.60
2018-09-05T03:37:23.956Z,37.90
2018-09-05T03:38:23.906Z,37.60
2018-09-05T03:39:23.865Z,38.00
2018-09-05T03:40:23.824Z,36.90
2018-09-05T03:41:23.791Z,37.60
2018-09-05T03:42:23.742Z,38.60
2018-09-05T03:43:23.698Z,37.60
2018-09-05T03:44:23.655Z,38.20
2018-09-05T03:45:23.611Z,38.90
2018-09-05T03:46:23.574Z,38.10
2018-09-05T03:47:23.528Z,38.00
2018-09-05T03:48:23.489Z,37.60
2018-09-05T03:49:23.442Z,38.30
2018-09-05T03:50:23.401Z,37.50
2018-09-05T03:51:23.360Z,37.70
2018-09-05T03:52:23.317Z,36.20
2018-09-05T03:53:23.274Z,36.30
2018-09-05T03:54:23.235Z,37.20
2018-09-05T03:55:23.192Z,37.70
2018-09-05T03:56:23.151Z,38.50
2018-09-05T03:57:23.107Z,37.30
2018-09-05T03:58:23.068Z,37.70
2018-09-05T03:59:23.024Z,38.70
2018-09-05T04:00:22.981Z,40.80
2018-09-05T04:01:22.935Z,42.70
2018-09-05T04:02:22.893Z,42.20
2018-09-05T04:03:22.851Z,41.80
2018-09-05T04:04:22.812Z,45.00
2018-09-05T04:05:22.767Z,40.60
2018-09-05T04:06:22.730Z,40.90
2018-09-05T04:07:22.685Z,39.10
2018-09-05T04:08:22.642Z,40.20
2018-09-05T04:09:22.600Z,40.30
2018-09-05T04:10:22.557Z,40.90
2018-09-05T04:11:22.515Z,43.90
2018-09-05T04:12:22.477Z,42.70
2018-09-05T04:13:22.437Z,41.80
2018-09-05T04:14:22.391Z,45.70
2018-09-05T04:15:22.345Z,42.60
2018-09-05T04:16:22.306Z,43.50
2018-09-05T04:17:22.262Z,41.50
2018-09-05T04:18:22.222Z,40.90
2018-09-05T04:19:22.178Z,44.40
2018-09-05T04:20:22.136Z,42.70
2018-09-05T04:21:22.093Z,43.30
2018-09-05T04:22:22.052Z,42.70
2018-09-05T04:23:22.009Z,41.50
2018-09-05T04:24:21.970Z,41.70
2018-09-05T04:25:21.924Z,46.80
2018-09-05T04:26:21.887Z,42.60
2018-09-05T04:27:21.843Z,47.50
2018-09-05T04:28:21.800Z,43.30
2018-09-05T04:29:21.793Z,45.10
2018-09-05T04:30:21.775Z,43.20
2018-09-05T04:31:21.672Z,46.30
2018-09-05T04:32:21.633Z,49.20
2018-09-05T04:33:21.588Z,48.60
2018-09-05T04:34:21.545Z,47.20
2018-09-05T04:35:21.505Z,46.10
2018-09-05T04:36:21.462Z,46.10
2018-09-05T04:37:21.420Z,45.30
2018-09-05T04:38:21.376Z,47.00
2018-09-05T04:39:21.334Z,47.00
2018-09-05T04:40:21.293Z,47.10
2018-09-05T04:41:21.252Z,51.30
2018-09-05T04:42:21.209Z,46.50
2018-09-05T04:43:21.167Z,52.10
2018-09-05T04:44:21.125Z,51.70
2018-09-05T04:45:21.084Z,52.50
2018-09-05T04:46:21.040Z,51.20
2018-09-05T04:47:21.013Z,53.10
2018-09-05T04:48:20.957Z,55.10
2018-09-05T04:49:20.917Z,52.90
2018-09-05T04:50:20.878Z,55.90
2018-09-05T04:51:20.836Z,53.00
2018-09-05T04:52:20.788Z,52.90
2018-09-05T04:53:20.744Z,48.40
2018-09-05T04:54:20.710Z,52.20
2018-09-05T04:55:20.690Z,51.30
2018-09-05T04:56:20.707Z,54.10
2018-09-05T04:57:20.686Z,53.90
2018-09-05T04:58:20.639Z,50.60
2018-09-05T04:59:20.596Z,48.40
2018-09-05T05:00:20.454Z,46.40
2018-09-05T05:01:20.406Z,45.50
2018-09-05T05:02:20.365Z,47.70
2018-09-05T05:03:20.322Z,50.40
2018-09-05T05:04:20.282Z,52.10
2018-09-05T05:05:20.301Z,49.00
2018-09-05T05:06:20.198Z,50.30
2018-09-05T05:07:20.155Z,51.60
2018-09-05T05:08:20.112Z,53.80
2018-09-05T05:09:20.079Z,51.70
2018-09-05T05:10:20.031Z,51.90
2018-09-05T05:11:19.985Z,51.60
2018-09-05T05:12:19.945Z,50.40
2018-09-05T05:13:19.908Z,48.30
2018-09-05T05:14:19.870Z,47.70
2018-09-05T05:15:19.823Z,46.90
2018-09-05T05:16:19.778Z,47.10
2018-09-05T05:17:19.732Z,47.30
2018-09-05T05:18:19.691Z,46.20
2018-09-05T05:19:19.649Z,47.20
2018-09-05T05:20:19.608Z,45.20
2018-09-05T05:21:19.563Z,48.00
2018-09-05T05:22:19.522Z,48.60
2018-09-05T05:23:19.481Z,44.40
2018-09-05T05:24:19.440Z,45.00
2018-09-05T05:25:19.394Z,43.90
2018-09-05T05:26:19.353Z,44.80
2018-09-05T05:27:19.314Z,46.40
2018-09-05T05:28:19.269Z,46.40
2018-09-05T05:29:19.229Z,46.80
2018-09-05T05:30:19.187Z,50.20
2018-09-05T05:31:19.141Z,50.90
2018-09-05T05:32:19.126Z,49.00
2018-09-05T05:33:19.059Z,53.50
2018-09-05T05:34:19.017Z,54.90
2018-09-05T05:35:18.976Z,51.00
2018-09-05T05:36:18.935Z,55.50
2018-09-05T05:37:18.890Z,60.10
2018-09-05T05:38:18.848Z,65.80
2018-09-05T05:39:18.805Z,62.40
2018-09-05T05:40:18.792Z,63.70
2018-09-05T05:41:18.720Z,58.30
2018-09-05T05:42:18.678Z,59.10
2018-09-05T05:43:18.637Z,57.40
2018-09-05T05:44:18.594Z,58.30
2018-09-05T05:45:18.552Z,60.70
2018-09-05T05:46:18.509Z,57.00
2018-09-05T05:47:18.477Z,60.30
2018-09-05T05:48:18.426Z,59.80
2018-09-05T05:49:18.394Z,55.00
2018-09-05T05:50:18.347Z,51.80
2018-09-05T05:51:18.310Z,52.40
2018-09-05T05:52:18.261Z,53.40
2018-09-05T05:53:18.215Z,50.40
2018-09-05T05:54:18.176Z,51.00
2018-09-05T05:55:18.135Z,53.60
2018-09-05T05:56:18.090Z,50.60
2018-09-05T05:57:18.048Z,49.00
2018-09-05T05:58:18.006Z,51.40
2018-09-05T05:59:17.969Z,51.90
2018-09-05T06:00:17.926Z,47.80
2018-09-05T06:01:18.029Z,52.00
2018-09-05T06:02:17.838Z,55.40
2018-09-05T06:03:17.798Z,55.80
2018-09-05T06:04:17.756Z,56.50
2018-09-05T06:05:17.713Z,63.70
2018-09-05T06:06:17.763Z,55.20
2018-09-05T06:07:17.629Z,60.60
2018-09-05T06:08:17.588Z,58.40
2018-09-05T06:09:17.545Z,56.30
2018-09-05T06:10:17.502Z,53.60
2018-09-05T06:11:17.462Z,55.40
2018-09-05T06:12:17.420Z,57.90
2018-09-05T06:13:17.378Z,56.80
2018-09-05T06:14:17.340Z,57.00
2018-09-05T06:15:17.293Z,56.60
2018-09-05T06:16:17.252Z,57.60
2018-09-05T06:17:17.212Z,54.50
2018-09-05T06:18:17.173Z,56.50
2018-09-05T06:19:17.128Z,57.90
2018-09-05T06:20:17.085Z,57.40
2018-09-05T06:21:17.045Z,56.70
2018-09-05T06:22:17.001Z,55.50
2018-09-05T06:23:16.967Z,56.80
2018-09-05T06:24:16.918Z,51.50
2018-09-05T06:25:16.877Z,56.60
2018-09-05T06:26:16.833Z,52.90
2018-09-05T06:27:16.792Z,54.00
2018-09-05T06:28:16.754Z,52.70
2018-09-05T06:29:16.711Z,49.90
2018-09-05T06:30:16.714Z,54.60
2018-09-05T06:31:16.746Z,50.10
2018-09-05T06:32:16.586Z,54.60
2018-09-05T06:33:16.542Z,50.00
2018-09-05T06:34:16.541Z,52.60
2018-09-05T06:35:16.459Z,50.60
2018-09-05T06:36:16.421Z,50.50
2018-09-05T06:37:16.377Z,50.50
2018-09-05T06:38:16.334Z,53.00
2018-09-05T06:39:16.294Z,56.70
2018-09-05T06:40:16.252Z,51.30
2018-09-05T06:41:16.213Z,49.90
2018-09-05T06:42:16.170Z,49.50
2018-09-05T06:43:16.129Z,52.70
2018-09-05T06:44:16.085Z,50.00
2018-09-05T06:45:16.056Z,49.40
2018-09-05T06:46:16.002Z,52.90
2018-09-05T06:47:15.963Z,52.50
2018-09-05T06:48:15.925Z,53.60
2018-09-05T06:49:15.884Z,49.30
2018-09-05T06:50:15.843Z,50.00
2018-09-05T06:51:15.845Z,49.20
2018-09-05T06:52:15.762Z,53.00
2018-09-05T06:53:15.711Z,48.70
2018-09-05T06:54:15.670Z,48.10
2018-09-05T06:55:15.632Z,47.60
2018-09-05T06:56:15.589Z,52.80
2018-09-05T06:57:15.549Z,50.80
2018-09-05T06:58:15.522Z,49.20
2018-09-05T06:59:15.467Z,53.10
2018-09-05T07:00:15.424Z,50.00
2018-09-05T07:01:15.381Z,50.60
2018-09-05T07:02:15.341Z,48.90
2018-09-05T07:03:15.300Z,51.60
2018-09-05T07:04:15.260Z,50.30
2018-09-05T07:05:15.217Z,50.50
2018-09-05T07:06:15.178Z,52.00
2018-09-05T07:07:15.134Z,49.50
2018-09-05T07:08:15.094Z,50.00
2018-09-05T07:09:15.052Z,51.50
2018-09-05T07:10:15.014Z,48.10
2018-09-05T07:11:14.974Z,48.30
2018-09-05T07:12:14.929Z,49.30
2018-09-05T07:13:14.887Z,47.40
2018-09-05T07:14:14.899Z,47.00
2018-09-05T07:15:14.804Z,49.50
2018-09-05T07:16:14.763Z,51.10
2018-09-05T07:17:14.721Z,49.60
2018-09-05T07:18:14.683Z,52.20
2018-09-05T07:19:14.641Z,50.20
2018-09-05T07:20:14.599Z,52.90
2018-09-05T07:21:14.591Z,50.10
2018-09-05T07:22:14.517Z,51.50
2018-09-05T07:23:14.477Z,52.30
2018-09-05T07:24:14.438Z,51.30
2018-09-05T07:25:14.394Z,56.10
2018-09-05T07:26:14.353Z,49.60
2018-09-05T07:27:14.312Z,50.30
2018-09-05T07:28:14.271Z,51.80
2018-09-05T07:29:14.229Z,49.10
2018-09-05T07:30:14.188Z,50.20
2018-09-05T07:31:14.148Z,51.40
2018-09-05T07:32:14.106Z,49.40
2018-09-05T07:33:14.071Z,49.20
2018-09-05T07:34:14.030Z,50.00
2018-09-05T07:35:13.986Z,49.10
2018-09-05T07:36:13.943Z,54.30
2018-09-05T07:37:13.901Z,52.20
2018-09-05T07:38:13.861Z,51.80
2018-09-05T07:39:13.820Z,51.60
2018-09-05T07:40:13.783Z,54.30
2018-09-05T07:41:13.739Z,51.30
2018-09-05T07:42:13.698Z,51.10
2018-09-05T07:43:13.661Z,50.10
2018-09-05T07:44:13.617Z,51.10
2018-09-05T07:46:13.534Z,52.10
2018-09-05T07:47:13.494Z,51.00
2018-09-05T07:48:13.455Z,52.40
2018-09-05T07:49:13.418Z,51.20
2018-09-05T07:50:13.376Z,50.40
2018-09-05T07:51:13.334Z,50.90
2018-09-05T07:52:13.296Z,50.30
2018-09-05T07:53:13.252Z,50.20
2018-09-05T07:54:13.214Z,49.20
2018-09-05T07:55:13.175Z,51.10
2018-09-05T07:56:13.134Z,49.40
2018-09-05T07:57:13.095Z,51.00
2018-09-05T07:58:13.057Z,50.30
2018-09-05T07:59:13.011Z,50.30
2018-09-05T08:00:12.973Z,49.40
2018-09-05T08:01:12.934Z,48.60
2018-09-05T08:02:12.891Z,50.40
2018-09-05T08:03:12.861Z,47.90
2018-09-05T08:04:12.812Z,49.00
2018-09-05T08:05:12.773Z,52.10
2018-09-05T08:06:12.734Z,50.00
2018-09-05T08:07:12.693Z,52.20
2018-09-05T08:08:12.652Z,48.50
2018-09-05T08:09:12.612Z,48.70
2018-09-05T08:10:12.573Z,48.90
2018-09-05T08:11:12.534Z,49.20
2018-09-05T08:12:12.492Z,49.30
2018-09-05T08:13:12.455Z,51.10
2018-09-05T08:14:12.417Z,47.70
2018-09-05T08:32:11.720Z,44.90
2018-09-05T08:36:11.897Z,44.10
2018-09-05T08:37:11.790Z,46.10
2018-09-05T08:38:11.526Z,41.60
2018-09-05T08:39:11.434Z,42.50
2018-09-05T08:40:11.395Z,42.00
2018-09-05T08:41:11.399Z,42.90
2018-09-05T08:42:11.371Z,42.80
2018-09-05T08:43:11.277Z,43.90
2018-09-05T08:44:11.444Z,42.90
2018-09-05T08:45:11.344Z,42.60
2018-09-05T08:46:11.436Z,40.50
2018-09-05T08:47:11.145Z,45.90
2018-09-05T08:48:11.112Z,44.00
2018-09-05T08:49:11.044Z,39.40
2018-09-05T08:50:11.003Z,40.50
2018-09-05T08:51:10.963Z,40.50
2018-09-05T08:52:10.928Z,42.60
2018-09-05T08:53:10.893Z,45.80
2018-09-05T08:54:10.854Z,47.30
2018-09-05T08:55:10.923Z,41.20
2018-09-05T08:56:10.886Z,40.00
2018-09-05T08:57:10.737Z,41.00
2018-09-05T08:58:10.697Z,40.40
2018-09-05T08:59:10.657Z,42.40
2018-09-05T09:00:10.621Z,47.70
2018-09-05T09:01:10.583Z,42.00
2018-09-05T09:02:10.543Z,41.70
2018-09-05T09:03:10.504Z,40.80
2018-09-05T09:04:10.470Z,43.00
2018-09-05T09:05:10.429Z,41.00
2018-09-05T09:06:10.388Z,45.40
2018-09-05T09:07:10.354Z,43.00
2018-09-05T09:08:10.318Z,40.40
2018-09-05T09:09:10.274Z,39.60
2018-09-05T09:10:10.239Z,36.90
2018-09-05T09:11:10.198Z,44.30
2018-09-05T09:12:10.160Z,40.70
2018-09-05T09:13:10.128Z,37.20
2018-09-05T09:14:10.084Z,35.80
2018-09-05T09:15:10.047Z,34.00
2018-09-05T09:16:10.009Z,33.70
2018-09-05T09:17:09.967Z,35.30
2018-09-05T09:18:09.931Z,33.60
2018-09-05T09:19:09.893Z,37.00
2018-09-05T09:20:09.855Z,32.50
2018-09-05T09:21:09.819Z,33.60
2018-09-05T09:22:09.779Z,33.20
2018-09-05T09:23:09.742Z,34.20
2018-09-05T09:24:09.705Z,37.30
2018-09-05T09:25:09.670Z,31.80
2018-09-05T09:26:09.632Z,32.40
2018-09-05T09:27:09.594Z,32.90
2018-09-05T09:28:09.620Z,33.40
2018-09-05T09:29:09.527Z,33.50
2018-09-05T09:30:09.480Z,34.10
2018-09-05T09:31:09.443Z,34.60
2018-09-05T09:32:09.404Z,34.20
2018-09-05T09:33:09.362Z,34.40
2018-09-05T09:34:09.325Z,38.00
2018-09-05T09:35:09.295Z,35.50
2018-09-05T09:36:09.253Z,31.10
2018-09-05T09:37:09.216Z,29.80
2018-09-05T09:38:09.177Z,31.70
2018-09-05T09:39:09.137Z,31.60
2018-09-05T09:40:09.113Z,33.90
2018-09-05T09:41:09.060Z,32.40
2018-09-05T09:42:09.024Z,34.10
2018-09-05T09:43:08.986Z,31.80
2018-09-05T09:44:08.948Z,34.00
2018-09-05T09:45:08.909Z,33.60
2018-09-05T09:46:08.871Z,32.30
2018-09-05T09:47:08.840Z,32.60
2018-09-05T09:48:08.804Z,32.00
2018-09-05T09:49:08.760Z,32.60
2018-09-05T09:50:08.721Z,31.60
2018-09-05T09:51:08.690Z,31.40
2018-09-05T09:52:08.648Z,29.60
2018-09-05T09:53:08.609Z,31.00
2018-09-05T09:54:08.573Z,30.40
2018-09-05T09:55:08.532Z,30.10
2018-09-05T09:56:08.496Z,28.40
2018-09-05T09:57:08.457Z,31.20
2018-09-05T09:58:08.425Z,28.00
2018-09-05T09:59:08.380Z,26.70
2018-09-05T10:00:08.343Z,27.60
2018-09-05T10:01:08.307Z,30.50
2018-09-05T10:02:08.271Z,26.40
2018-09-05T10:03:08.238Z,28.20
2018-09-05T10:04:08.339Z,31.40
2018-09-05T10:05:08.152Z,30.40
2018-09-05T10:06:08.114Z,29.10
2018-09-05T10:07:08.109Z,27.00
2018-09-05T10:08:08.048Z,27.90
2018-09-05T10:09:08.001Z,27.30
2018-09-05T10:10:08.251Z,30.60
2018-09-05T10:11:07.939Z,31.20
2018-09-05T10:12:07.889Z,32.90
2018-09-05T10:13:07.854Z,24.70
2018-09-05T10:14:07.812Z,29.80
2018-09-05T10:15:07.779Z,29.10
2018-09-05T10:16:07.741Z,29.40
2018-09-05T10:17:07.727Z,28.20
2018-09-05T10:18:07.666Z,30.90
2018-09-05T10:19:07.634Z,30.10
2018-09-05T10:20:07.589Z,26.80
2018-09-05T10:21:07.635Z,27.60
2018-09-05T10:22:07.516Z,29.40
2018-09-05T10:23:07.477Z,27.90
2018-09-05T10:24:07.438Z,27.00
2018-09-05T10:25:07.401Z,27.00
2018-09-05T10:26:07.364Z,28.30
2018-09-05T10:27:07.326Z,28.20
2018-09-05T10:28:07.287Z,30.60
2018-09-05T10:29:07.252Z,29.20
2018-09-05T10:30:07.215Z,32.60
2018-09-05T10:31:07.180Z,30.80
2018-09-05T10:32:07.143Z,27.90
2018-09-05T10:33:07.108Z,27.70
2018-09-05T10:34:07.068Z,30.90
2018-09-05T10:35:07.027Z,33.50
2018-09-05T10:36:07.001Z,32.40
2018-09-05T10:37:06.953Z,31.60
2018-09-05T10:38:06.925Z,28.20
2018-09-05T10:39:06.881Z,30.00
2018-09-05T10:40:06.848Z,27.80
2018-09-05T10:41:06.805Z,29.10
2018-09-05T10:42:06.774Z,29.10
2018-09-05T10:43:06.730Z,28.00
2018-09-05T10:44:06.755Z,26.30
2018-09-05T10:45:06.657Z,25.90
2018-09-05T10:46:06.622Z,24.10
2018-09-05T10:47:06.584Z,26.00
2018-09-05T10:48:06.549Z,25.40
2018-09-05T10:49:06.511Z,23.50
2018-09-05T10:50:06.473Z,22.40
2018-09-05T10:51:06.436Z,22.90
2018-09-05T10:52:06.402Z,23.60
2018-09-05T10:53:06.363Z,22.60
2018-09-05T10:54:06.329Z,22.30
2018-09-05T10:55:06.299Z,21.20
2018-09-05T10:56:06.259Z,22.50
2018-09-05T10:57:06.219Z,21.10
2018-09-05T10:58:06.249Z,20.90
2018-09-05T10:59:06.152Z,21.60
2018-09-05T11:00:06.113Z,21.40
2018-09-05T11:01:06.071Z,21.70
2018-09-05T11:02:06.043Z,21.80
2018-09-05T11:03:06.007Z,21.00
2018-09-05T11:04:06.023Z,22.30
2018-09-05T11:05:05.933Z,21.30
2018-09-05T11:06:05.892Z,20.50
2018-09-05T11:07:05.858Z,19.80
2018-09-05T11:08:05.821Z,19.50
2018-09-05T11:09:05.785Z,20.30
2018-09-05T11:10:05.749Z,20.40
2018-09-05T11:11:05.708Z,19.60
2018-09-05T11:12:05.672Z,18.80
2018-09-05T11:13:05.635Z,18.50
2018-09-05T11:14:05.603Z,18.40
2018-09-05T11:15:05.566Z,19.90
2018-09-05T11:16:05.529Z,17.50
2018-09-05T11:17:05.494Z,19.50
2018-09-05T11:18:05.459Z,18.10
2018-09-05T11:19:05.420Z,18.40
2018-09-05T11:20:05.388Z,19.30
2018-09-05T11:21:05.388Z,16.90
2018-09-05T11:22:05.316Z,18.50
2018-09-05T11:23:05.277Z,18.00
2018-09-05T11:24:05.246Z,19.90
2018-09-05T11:25:05.205Z,18.90
2018-09-05T11:26:05.168Z,17.80
2018-09-05T11:27:05.139Z,18.40
2018-09-05T11:28:05.102Z,19.40
2018-09-05T11:29:05.069Z,18.20
2018-09-05T11:30:05.040Z,17.50
2018-09-05T11:31:04.991Z,18.10
2018-09-05T11:32:04.964Z,16.80
2018-09-05T11:33:04.920Z,16.50
2018-09-05T11:34:04.887Z,16.00
2018-09-05T11:35:04.851Z,17.20
2018-09-05T11:36:04.819Z,18.40
2018-09-05T11:37:04.846Z,17.00
2018-09-05T11:38:04.747Z,17.80
2018-09-05T11:39:04.709Z,17.60
2018-09-05T11:40:04.674Z,16.50
2018-09-05T11:41:04.637Z,18.90
2018-09-05T11:42:04.610Z,21.00
2018-09-05T11:43:04.570Z,17.90
2018-09-05T11:44:04.538Z,20.10
2018-09-05T11:45:04.498Z,17.70
2018-09-05T11:46:04.465Z,17.90
2018-09-05T11:47:04.430Z,17.30
2018-09-05T11:48:04.391Z,16.80
2018-09-05T11:49:04.355Z,16.40
2018-09-05T11:50:04.326Z,17.80
2018-09-05T11:51:04.283Z,16.40
2018-09-05T11:52:04.251Z,16.30
2018-09-05T11:53:04.217Z,16.20
2018-09-05T11:54:04.180Z,17.20
2018-09-05T11:55:04.146Z,17.10
2018-09-05T11:56:04.111Z,18.60
2018-09-05T11:57:04.074Z,17.20
2018-09-05T11:58:04.041Z,16.80
2018-09-05T11:59:04.004Z,17.20
2018-09-05T12:00:03.969Z,16.80
2018-09-05T12:01:03.936Z,17.50
2018-09-05T12:02:03.902Z,17.40
2018-09-05T12:03:03.868Z,17.40
2018-09-05T12:04:03.827Z,17.20
2018-09-05T12:05:03.852Z,17.10
2018-09-05T12:06:03.796Z,17.50
2018-09-05T12:07:03.722Z,18.00
2018-09-05T12:08:03.689Z,19.40
2018-09-05T12:09:03.653Z,18.70
2018-09-05T12:10:03.620Z,17.50
2018-09-05T12:11:03.590Z,19.80
2018-09-05T12:12:03.600Z,17.80
2018-09-05T12:13:03.512Z,20.10
2018-09-05T12:14:03.477Z,22.10
2018-09-05T12:15:03.443Z,20.40
2018-09-05T12:16:03.407Z,20.50
2018-09-05T12:17:03.377Z,22.20
2018-09-05T12:18:03.351Z,23.40
2018-09-05T12:19:03.305Z,20.90
2018-09-05T12:20:03.269Z,21.60
2018-09-05T12:21:03.230Z,20.80
2018-09-05T12:22:03.201Z,20.60
2018-09-05T12:23:03.160Z,23.50
2018-09-05T12:24:03.125Z,23.70
2018-09-05T12:25:03.096Z,22.90
2018-09-05T12:26:03.056Z,23.20
2018-09-05T12:27:03.021Z,22.60
2018-09-05T12:28:02.989Z,21.20
2018-09-05T12:29:02.950Z,22.80
2018-09-05T12:30:02.916Z,23.40
2018-09-05T12:31:02.883Z,24.20
2018-09-05T12:32:02.850Z,23.40
2018-09-05T12:33:02.812Z,22.50
2018-09-05T12:34:02.781Z,19.80
2018-09-05T12:35:02.743Z,21.10
2018-09-05T12:36:02.712Z,20.00
2018-09-05T12:37:02.673Z,20.40
2018-09-05T12:38:02.638Z,20.30
2018-09-05T12:39:02.603Z,19.90
2018-09-05T12:40:02.570Z,20.50
2018-09-05T12:41:02.537Z,19.50
2018-09-05T12:42:02.500Z,19.40
2018-09-05T12:43:02.468Z,20.10
2018-09-05T12:44:02.431Z,21.50
2018-09-05T12:45:02.390Z,22.70
2018-09-05T12:46:02.358Z,20.80
2018-09-05T12:47:02.324Z,20.00
2018-09-05T12:48:02.290Z,19.90
2018-09-05T12:49:02.260Z,19.70
2018-09-05T12:50:02.221Z,21.50
2018-09-05T12:51:02.187Z,20.00
2018-09-05T12:52:02.152Z,20.50
2018-09-05T12:53:02.115Z,20.20
2018-09-05T12:54:02.080Z,23.80
2018-09-05T12:55:02.049Z,21.50
2018-09-05T12:56:02.008Z,21.20
2018-09-05T12:57:01.973Z,20.70
2018-09-05T12:58:01.945Z,19.40
2018-09-05T12:59:01.910Z,20.30
2018-09-05T13:00:01.872Z,19.90
2018-09-05T13:01:01.837Z,19.30
2018-09-05T13:02:01.800Z,20.30
2018-09-05T13:03:01.764Z,18.50
2018-09-05T13:04:01.746Z,18.40
2018-09-05T13:05:01.799Z,18.90
2018-09-05T13:06:01.663Z,18.30
2018-09-05T13:07:01.634Z,17.50
2018-09-05T13:08:01.598Z,18.30
2018-09-05T13:09:01.561Z,19.50
2018-09-05T13:10:01.525Z,19.10
2018-09-05T13:11:01.489Z,18.30
2018-09-05T13:12:01.457Z,17.60
2018-09-05T13:13:01.418Z,18.60